Time;durP1;ratioP1;P1;durP2;ratioP2;P2;SDS_P1;SDS_P2;PMS_P1;PMS_P2;Temp;Humidity;BMP_temperature;BMP_pressure;BME280_temperature;BME280_humidity;BME280_pressure;Samples;Min_cycle;Max_cycle;Signal;HPM_P1;HPM_P2
2023/09/21 00:01:25;;;;;;;;;1.60;1.60;;;;;20.24;58.45;98585.72;5098037;28;8861;-59
2023/09/21 00:03:53;;;;;;;;;1.00;1.00;;;;;20.24;58.37;98585.72;5098292;28;8818;-57
2023/09/21 00:06:21;;;;;;;;;2.00;2.00;;;;;20.22;58.54;98587.84;5098030;28;8826;-57
2023/09/21 00:08:49;;;;;;;;;1.00;1.00;;;;;20.22;58.39;98587.84;5097144;28;8864;-58
2023/09/21 00:11:18;;;;;;;;;1.20;1.20;;;;;20.25;58.69;98584.69;5097892;28;8826;-58
2023/09/21 00:13:45;;;;;;;;;2.00;2.00;;;;;20.25;58.63;98581.97;5098165;28;8834;-57
2023/09/21 00:16:14;;;;;;;;;2.00;2.00;;;;;20.26;58.61;98588.22;5097944;28;8822;-60
2023/09/21 00:18:43;;;;;;;;;1.80;1.80;;;;;20.26;58.25;98582.81;5098069;28;8860;-57
2023/09/21 00:21:12;;;;;;;;;0.80;0.60;;;;;20.25;58.42;98581.16;5097931;28;8834;-58
2023/09/21 00:23:41;;;;;;;;;1.00;1.00;;;;;20.28;58.27;98578.03;5097943;28;8856;-59
2023/09/21 00:26:09;;;;;;;;;1.60;1.40;;;;;20.31;58.53;98567.59;5097956;28;8888;-58
2023/09/21 00:28:37;;;;;;;;;2.00;2.00;;;;;20.31;57.85;98570.31;5097551;28;8903;-59
2023/09/21 00:31:05;;;;;;;;;1.60;1.60;;;;;20.31;58.18;98572.19;5097157;28;8814;-59
2023/09/21 00:33:32;;;;;;;;;3.20;3.20;;;;;20.31;58.59;98564.91;5097752;28;8880;-59
2023/09/21 00:36:04;;;;;;;;;1.20;1.00;;;;;20.32;58.57;98560.34;5097818;28;8818;-59
2023/09/21 00:38:33;;;;;;;;;1.60;1.60;;;;;20.35;58.21;98555.31;5097326;28;8853;-57
2023/09/21 00:41:01;;;;;;;;;3.60;2.00;;;;;20.34;57.76;98548.22;5097311;28;8830;-59
2023/09/21 00:43:29;;;;;;;;;1.60;1.60;;;;;20.31;58.41;98543.25;5097480;28;8848;-60
2023/09/21 00:45:57;;;;;;;;;1.00;1.00;;;;;20.31;58.24;98545.97;5097564;28;8857;-59
2023/09/21 00:48:25;;;;;;;;;1.60;1.00;;;;;20.32;58.24;98541.41;5096321;28;8846;-58
2023/09/21 00:50:54;;;;;;;;;4.00;4.00;;;;;20.33;58.26;98535.75;5097578;28;8811;-59
2023/09/21 00:53:22;;;;;;;;;2.40;2.00;;;;;20.36;58.61;98535.34;5097344;28;8910;-59
2023/09/21 00:55:50;;;;;;;;;2.00;2.00;;;;;20.41;58.50;98538.19;5096781;28;8869;-59
2023/09/21 00:58:18;;;;;;;;;1.80;1.80;;;;;20.48;57.92;98528.16;5096652;28;8842;-59
2023/09/21 01:00:46;;;;;;;;;1.60;1.60;;;;;20.53;58.05;98530.19;5088706;28;8803;-59
2023/09/21 01:03:14;;;;;;;;;1.00;1.00;;;;;20.57;57.92;98531.44;5096113;28;8819;-59
2023/09/21 01:05:42;;;;;;;;;1.00;1.00;;;;;20.58;57.43;98519.56;5096420;28;8814;-60
2023/09/21 01:08:18;;;;;;;;;2.80;2.80;;;;;20.59;57.46;98511.22;5096827;28;8818;-60
2023/09/21 01:10:48;;;;;;;;;2.40;2.00;;;;;20.61;57.91;98516.41;5096466;28;8810;-59
2023/09/21 01:13:17;;;;;;;;;2.00;2.00;;;;;20.64;57.59;98508.69;5097292;28;9491;-60
2023/09/21 01:15:45;;;;;;;;;1.80;1.80;;;;;20.67;57.48;98505.53;5096143;28;8820;-59
2023/09/21 01:18:13;;;;;;;;;2.00;2.00;;;;;20.69;57.58;98508.84;5097151;28;9585;-60
2023/09/21 01:20:42;;;;;;;;;2.00;2.00;;;;;20.73;57.07;98498.41;5095675;28;9657;-57
2023/09/21 01:23:11;;;;;;;;;3.20;2.00;;;;;20.76;57.40;98501.50;5096782;28;8844;-57
2023/09/21 01:25:39;;;;;;;;;0.40;0.40;;;;;20.77;57.39;98497.75;5097018;28;8846;-57
2023/09/21 01:28:07;;;;;;;;;1.00;1.00;;;;;20.78;57.19;98485.88;5096799;28;8853;-59
2023/09/21 01:30:35;;;;;;;;;2.00;2.00;;;;;20.81;56.88;98491.66;5096794;28;8830;-58
2023/09/21 01:33:08;;;;;;;;;1.80;1.80;;;;;20.79;57.21;98488.38;5096440;28;8868;-58
2023/09/21 01:35:36;;;;;;;;;1.80;1.80;;;;;20.79;57.11;98492.94;5095964;28;8810;-57
2023/09/21 01:38:05;;;;;;;;;1.60;1.00;;;;;20.79;56.75;98482.09;5096477;28;8829;-58
2023/09/21 01:40:34;;;;;;;;;2.00;2.00;;;;;20.82;56.51;98476.28;5096264;28;8837;-57
2023/09/21 01:43:03;;;;;;;;;1.20;1.20;;;;;20.81;56.69;98475.44;5096662;28;8869;-58
2023/09/21 01:45:31;;;;;;;;;2.00;2.00;;;;;20.80;56.51;98472.97;5095961;28;8815;-58
2023/09/21 01:48:00;;;;;;;;;1.00;1.00;;;;;20.77;57.03;98470.69;5096527;28;8840;-58
2023/09/21 01:50:28;;;;;;;;;1.00;1.00;;;;;20.78;56.82;98465.06;5096386;28;8822;-59
2023/09/21 01:52:56;;;;;;;;;2.40;2.00;;;;;20.80;56.49;98472.97;5096443;28;8833;-57
2023/09/21 01:55:23;;;;;;;;;1.60;1.60;;;;;20.84;56.48;98456.06;5096295;28;8832;-58
2023/09/21 01:57:51;;;;;;;;;3.80;3.60;;;;;20.89;56.75;98463.53;5095939;28;8881;-59
2023/09/21 02:00:27;;;;;;;;;2.00;2.00;;;;;20.97;56.33;98449.72;5096335;28;8879;-58
2023/09/21 02:02:55;;;;;;;;;2.00;1.80;;;;;20.99;56.14;98455.72;5095794;28;8911;-57
2023/09/21 02:05:24;;;;;;;;;0.00;0.00;;;;;20.99;55.74;98445.72;5096304;28;8834;-57
2023/09/21 02:07:51;;;;;;;;;4.20;1.80;;;;;21.02;56.07;98449.88;5096170;28;8834;-57
2023/09/21 02:10:19;;;;;;;;;2.00;2.00;;;;;21.00;55.58;98439.25;5095903;28;8822;-57
2023/09/21 02:12:46;;;;;;;;;1.00;1.00;;;;;20.96;55.59;98442.66;5096278;28;8818;-56
2023/09/21 02:15:14;;;;;;;;;2.00;2.00;;;;;20.92;56.15;98436.00;5095874;28;9526;-57
2023/09/21 02:17:42;;;;;;;;;2.80;2.00;;;;;20.88;56.20;98432.09;5095498;28;8810;-59
2023/09/21 02:20:13;;;;;;;;;2.40;2.00;;;;;20.84;55.87;98425.44;5095859;28;8826;-57
2023/09/21 02:22:42;;;;;;;;;1.00;1.00;;;;;20.80;55.92;98426.97;5095855;28;8837;-57
2023/09/21 02:25:11;;;;;;;;;0.80;0.80;;;;;20.73;56.47;98424.31;5096080;28;8818;-58
2023/09/21 02:27:39;;;;;;;;;1.00;1.00;;;;;20.68;56.75;98426.03;5095872;28;8811;-57
2023/09/21 02:30:08;;;;;;;;;1.00;1.00;;;;;20.60;56.84;98423.59;5095938;28;8853;-57
2023/09/21 02:32:36;;;;;;;;;2.20;1.80;;;;;20.53;56.88;98422.84;5097758;28;8818;-57
2023/09/21 02:35:07;;;;;;;;;1.40;1.40;;;;;20.47;56.72;98422.91;5100161;28;8960;-57
2023/09/21 02:37:35;;;;;;;;;0.00;0.00;;;;;20.37;56.94;98418.00;5099964;28;8822;-59
2023/09/21 02:40:04;;;;;;;;;1.80;1.00;;;;;20.33;56.94;98422.16;5099981;28;9523;-57
2023/09/21 02:42:34;;;;;;;;;1.00;1.00;;;;;20.28;57.25;98408.50;5099977;28;8818;-57
2023/09/21 02:45:04;;;;;;;;;1.00;1.00;;;;;20.28;56.89;98416.63;5099458;28;8803;-57
2023/09/21 02:47:32;;;;;;;;;2.00;2.00;;;;;20.27;57.05;98412.25;5079679;28;8856;-57
2023/09/21 02:50:00;;;;;;;;;2.00;2.00;;;;;20.26;56.95;98409.78;5079428;28;8847;-58
2023/09/21 02:52:28;;;;;;;;;1.00;1.00;;;;;20.20;57.46;98406.09;5079241;28;8862;-60
2023/09/21 02:54:57;;;;;;;;;1.00;1.00;;;;;20.16;57.46;98406.75;5079177;28;8816;-57
2023/09/21 02:57:28;;;;;;;;;2.00;2.00;;;;;20.14;56.99;98398.84;5079079;28;8828;-60
2023/09/21 02:59:55;;;;;;;;;1.40;1.00;;;;;20.14;57.08;98396.13;5078701;28;8842;-57
2023/09/21 03:02:23;;;;;;;;;4.00;4.00;;;;;20.14;57.10;98392.59;5079040;28;8816;-58
2023/09/21 03:04:52;;;;;;;;;1.80;1.80;;;;;20.12;57.14;98387.44;5079602;28;8848;-57
2023/09/21 03:07:21;;;;;;;;;2.00;1.00;;;;;20.12;57.30;98392.84;5079018;28;8854;-57
2023/09/21 03:09:49;;;;;;;;;1.00;1.00;;;;;20.10;57.26;98386.00;5078990;28;8950;-59
2023/09/21 03:12:17;;;;;;;;;0.40;0.40;;;;;20.11;57.22;98391.16;5079082;28;8824;-57
2023/09/21 03:14:46;;;;;;;;;1.00;1.00;;;;;20.10;57.06;98386.81;5084369;28;8852;-58
2023/09/21 03:17:15;;;;;;;;;2.00;2.00;;;;;20.08;56.97;98386.19;5099344;28;9533;-58
2023/09/21 03:19:49;;;;;;;;;1.00;1.00;;;;;20.05;57.29;98377.69;5099099;28;8830;-57
2023/09/21 03:22:17;;;;;;;;;2.40;2.40;;;;;20.02;57.49;98380.81;5099323;28;9511;-57
2023/09/21 03:24:47;;;;;;;;;2.00;2.00;;;;;19.99;57.63;98376.69;5098918;28;8834;-58
2023/09/21 03:27:15;;;;;;;;;1.00;1.00;;;;;19.96;57.58;98371.69;5099006;28;8864;-58
2023/09/21 03:29:43;;;;;;;;;1.00;1.00;;;;;19.95;57.36;98375.44;5099615;28;9508;-58
2023/09/21 03:32:10;;;;;;;;;1.40;1.40;;;;;19.92;57.30;98372.34;5098886;28;8818;-60
2023/09/21 03:34:38;;;;;;;;;1.40;0.40;;;;;19.89;57.66;98364.69;5098706;28;8852;-57
2023/09/21 03:37:07;;;;;;;;;1.20;1.00;;;;;19.87;57.71;98359.50;5098716;28;8818;-57
2023/09/21 03:39:34;;;;;;;;;1.00;1.00;;;;;19.87;57.36;98356.00;5098539;28;8818;-58
2023/09/21 03:42:03;;;;;;;;;1.00;1.00;;;;;19.85;57.47;98355.38;5098572;28;8822;-59
2023/09/21 03:44:32;;;;;;;;;1.60;1.60;;;;;19.83;57.45;98350.19;5097474;28;8822;-57
2023/09/21 03:46:59;;;;;;;;;2.20;1.20;;;;;19.85;57.76;98361.59;5098415;28;8832;-59
2023/09/21 03:49:28;;;;;;;;;1.00;1.00;;;;;19.84;57.45;98341.03;5098483;28;8814;-57
2023/09/21 03:51:56;;;;;;;;;1.00;1.00;;;;;19.86;57.65;98346.25;5098635;28;9503;-58
2023/09/21 03:54:23;;;;;;;;;1.00;1.00;;;;;19.85;57.54;98337.28;5098545;28;8830;-58
2023/09/21 03:56:51;;;;;;;;;1.00;1.00;;;;;19.86;57.35;98322.72;5098061;28;8834;-57
2023/09/21 03:59:19;;;;;;;;;1.40;1.40;;;;;19.87;57.63;98329.78;5097492;28;8833;-57
2023/09/21 04:01:47;;;;;;;;;1.00;1.00;;;;;19.86;57.33;98319.22;5097369;28;8829;-59
2023/09/21 04:04:18;;;;;;;;;1.60;1.40;;;;;19.85;57.68;98309.44;5097952;28;8845;-60
2023/09/21 04:06:46;;;;;;;;;1.00;1.00;;;;;19.86;57.75;98306.53;5098118;28;9769;-60
2023/09/21 04:09:16;;;;;;;;;1.00;0.60;;;;;19.89;57.87;98307.97;5097476;28;8829;-59
2023/09/21 04:11:44;;;;;;;;;1.20;1.20;;;;;19.89;57.67;98300.66;5098361;28;8918;-60
2023/09/21 04:14:11;;;;;;;;;2.20;2.20;;;;;19.90;57.39;98298.78;5097680;28;8852;-60
2023/09/21 04:16:45;;;;;;;;;1.80;1.80;;;;;19.91;57.33;98297.75;5097879;28;8936;-59
2023/09/21 04:19:14;;;;;;;;;2.40;2.40;;;;;19.95;57.66;98294.38;5097560;28;8844;-58
2023/09/21 04:21:42;;;;;;;;;1.20;1.20;;;;;19.96;57.18;98289.81;5097573;28;8899;-60
2023/09/21 04:24:09;;;;;;;;;2.20;2.20;;;;;19.97;57.56;98295.00;5097452;28;8830;-59
2023/09/21 04:26:37;;;;;;;;;1.60;1.60;;;;;19.98;57.43;98288.53;5097346;28;8822;-58
2023/09/21 04:29:07;;;;;;;;;1.60;1.60;;;;;20.00;57.26;98285.59;5097636;28;8818;-58
2023/09/21 04:31:34;;;;;;;;;2.20;2.20;;;;;19.98;56.92;98283.16;5097210;28;8822;-58
2023/09/21 04:34:02;;;;;;;;;1.00;1.00;;;;;19.97;56.99;98284.19;5097679;28;8860;-59
2023/09/21 04:36:30;;;;;;;;;1.80;1.80;;;;;19.98;57.31;98293.94;5097227;28;8818;-58
2023/09/21 04:38:59;;;;;;;;;1.80;1.20;;;;;19.97;57.11;98286.91;5097218;28;8965;-59
2023/09/21 04:41:27;;;;;;;;;2.20;2.20;;;;;19.94;57.60;98284.63;5096862;28;8826;-58
2023/09/21 04:43:55;;;;;;;;;1.80;1.00;;;;;19.94;57.74;98287.31;5096868;28;8860;-60
2023/09/21 04:46:23;;;;;;;;;2.20;2.20;;;;;19.95;57.21;98282.75;5096737;28;9445;-60
2023/09/21 04:48:50;;;;;;;;;1.20;1.20;;;;;19.95;57.31;98278.16;5096786;28;8844;-59
2023/09/21 04:51:18;;;;;;;;;1.80;1.80;;;;;19.95;57.54;98278.16;5097021;28;8856;-58
2023/09/21 04:53:46;;;;;;;;;1.40;1.40;;;;;19.94;57.64;98275.69;5096888;28;8918;-59
2023/09/21 04:56:14;;;;;;;;;1.00;1.00;;;;;19.91;57.68;98282.38;5096929;28;8838;-56
2023/09/21 04:58:42;;;;;;;;;3.20;3.20;;;;;19.89;57.68;98279.03;5096805;28;8838;-60
2023/09/21 05:01:10;;;;;;;;;1.40;1.00;;;;;19.88;57.53;98274.69;5097180;28;9495;-60
2023/09/21 05:03:38;;;;;;;;;2.20;2.20;;;;;19.88;57.71;98271.19;5097111;28;8866;-60
2023/09/21 05:06:06;;;;;;;;;1.00;1.00;;;;;19.90;57.53;98274.47;5097020;28;8858;-60
2023/09/21 05:08:36;;;;;;;;;2.20;2.20;;;;;19.88;57.40;98266.59;5097079;28;8944;-60
2023/09/21 05:11:04;;;;;;;;;2.00;2.00;;;;;19.86;57.48;98265.97;5096351;28;8877;-60
2023/09/21 05:13:31;;;;;;;;;2.40;2.20;;;;;19.84;57.34;98276.19;5095460;28;8801;-60
2023/09/21 05:16:01;;;;;;;;;3.00;2.00;;;;;19.83;57.72;98265.59;5096537;28;9649;-60
2023/09/21 05:18:29;;;;;;;;;2.20;2.20;;;;;19.82;57.83;98263.94;5096622;28;8826;-58
2023/09/21 05:20:57;;;;;;;;;1.00;1.00;;;;;19.82;57.54;98266.66;5096013;28;8860;-60
2023/09/21 05:23:24;;;;;;;;;1.00;1.00;;;;;19.81;57.96;98268.50;5095873;28;8818;-58
2023/09/21 05:25:53;;;;;;;;;1.00;1.00;;;;;19.79;57.48;98265.22;5095722;28;8798;-59
2023/09/21 05:28:21;;;;;;;;;0.00;0.00;;;;;19.77;57.48;98275.41;5095887;28;8830;-58
2023/09/21 05:30:49;;;;;;;;;1.00;1.00;;;;;19.75;57.54;98266.72;5095989;28;8822;-57
2023/09/21 05:33:17;;;;;;;;;2.20;2.20;;;;;19.75;57.70;98263.19;5094850;28;8845;-57
2023/09/21 05:35:45;;;;;;;;;1.00;1.00;;;;;19.75;57.80;98271.28;5095028;28;8826;-58
2023/09/21 05:38:14;;;;;;;;;2.20;2.20;;;;;19.75;58.10;98276.69;5095023;28;8838;-58
2023/09/21 05:40:42;;;;;;;;;1.60;1.60;;;;;19.75;57.41;98271.28;5094829;28;8960;-57
2023/09/21 05:43:09;;;;;;;;;2.20;2.20;;;;;19.76;57.98;98272.94;5094573;28;8830;-58
2023/09/21 05:45:37;;;;;;;;;1.80;1.60;;;;;19.78;57.69;98277.06;5094849;28;8826;-60
2023/09/21 05:48:08;;;;;;;;;1.00;1.00;;;;;19.77;57.74;98282.69;5094610;28;8830;-58
2023/09/21 05:50:37;;;;;;;;;1.20;1.20;;;;;19.78;58.12;98287.88;5094394;28;8813;-58
2023/09/21 05:53:05;;;;;;;;;1.00;1.00;;;;;19.79;57.87;98281.44;5093904;28;8826;-58
2023/09/21 05:55:32;;;;;;;;;1.40;1.40;;;;;19.82;57.51;98278.31;5093420;28;8841;-57
2023/09/21 05:58:00;;;;;;;;;4.00;3.80;;;;;19.83;57.87;98285.34;5092921;28;8869;-59
2023/09/21 06:00:28;;;;;;;;;1.40;1.40;;;;;19.83;57.55;98277.25;5092719;28;8845;-58
2023/09/21 06:02:59;;;;;;;;;1.20;1.20;;;;;19.85;57.83;98277.84;5092742;28;8930;-58
2023/09/21 06:05:27;;;;;;;;;1.00;1.00;;;;;19.89;57.96;98281.75;5092559;28;8875;-57
2023/09/21 06:07:59;;;;;;;;;1.60;1.60;;;;;19.93;58.21;98280.25;5091774;28;8825;-57
2023/09/21 06:10:30;;;;;;;;;1.00;1.00;;;;;19.98;57.58;98279.59;5092978;28;9525;-57
2023/09/21 06:12:58;;;;;;;;;0.60;0.60;;;;;20.01;57.68;98285.38;5092792;28;8821;-58
2023/09/21 06:15:26;;;;;;;;;4.00;2.40;;;;;20.03;57.48;98275.16;5092627;28;8833;-58
2023/09/21 06:17:53;;;;;;;;;1.60;1.60;;;;;20.07;57.58;98272.88;5092745;28;8825;-57
2023/09/21 06:20:21;;;;;;;;;1.60;1.40;;;;;20.11;57.80;98280.31;5093207;28;8837;-57
2023/09/21 06:22:49;;;;;;;;;2.20;2.20;;;;;20.16;57.36;98282.38;5093282;28;8844;-57
2023/09/21 06:25:20;;;;;;;;;3.60;3.60;;;;;20.19;57.16;98288.16;5094556;28;8834;-60
2023/09/21 06:27:47;;;;;;;;;1.00;1.00;;;;;20.22;57.40;98282.31;5094903;28;8953;-57
2023/09/21 06:30:15;;;;;;;;;1.40;1.40;;;;;20.25;57.40;98287.25;5094838;28;8834;-58
2023/09/21 06:32:43;;;;;;;;;2.00;1.00;;;;;20.28;57.30;98278.72;5094500;28;9479;-58
2023/09/21 06:35:15;;;;;;;;;1.00;1.00;;;;;20.30;57.72;98287.44;5093886;28;8822;-58
2023/09/21 06:37:42;;;;;;;;;2.00;2.00;;;;;20.30;57.56;98273.06;5093788;28;8830;-58
2023/09/21 06:40:10;;;;;;;;;3.20;2.40;;;;;20.32;57.45;98269.09;5093851;28;8872;-58
2023/09/21 06:42:38;;;;;;;;;2.40;2.00;;;;;20.33;57.47;98270.75;5093347;28;8817;-58
2023/09/21 06:45:06;;;;;;;;;1.60;1.00;;;;;20.34;57.93;98269.69;5092550;28;8814;-57
2023/09/21 06:47:34;;;;;;;;;3.20;2.80;;;;;20.38;57.51;98267.34;5092668;28;8822;-58
2023/09/21 06:50:03;;;;;;;;;2.00;2.00;;;;;20.41;57.73;98256.91;5093495;28;8893;-57
2023/09/21 06:52:31;;;;;;;;;2.80;2.00;;;;;20.45;57.62;98258.13;5093048;28;9555;-58
2023/09/21 06:55:00;;;;;;;;;4.00;2.00;;;;;20.51;57.34;98253.69;5093111;28;8810;-57
2023/09/21 06:57:28;;;;;;;;;2.00;2.00;;;;;20.54;57.75;98254.06;5093612;28;8849;-58
2023/09/21 06:59:56;;;;;;;;;1.00;1.00;;;;;20.59;57.58;98259.63;5093163;28;8989;-58
2023/09/21 07:02:25;;;;;;;;;2.80;2.40;;;;;20.62;57.86;98264.59;5093739;28;8883;-58
2023/09/21 07:04:52;;;;;;;;;4.00;2.00;;;;;20.67;57.46;98262.03;5094416;28;8834;-59
2023/09/21 07:07:21;;;;;;;;;4.00;4.00;;;;;20.71;57.76;98257.81;5094194;28;8846;-59
2023/09/21 07:09:48;;;;;;;;;1.00;1.00;;;;;20.78;57.82;98261.25;5093026;28;8868;-57
2023/09/21 07:12:17;;;;;;;;;2.00;2.00;;;;;20.82;57.39;98248.94;5094045;28;8826;-58
2023/09/21 07:14:49;;;;;;;;;2.40;2.40;;;;;20.87;57.36;98246.41;5093699;28;8821;-60
2023/09/21 07:17:17;;;;;;;;;2.00;2.00;;;;;20.89;57.57;98242.41;5093494;28;8922;-57
2023/09/21 07:19:45;;;;;;;;;2.00;2.00;;;;;20.91;57.88;98236.75;5095311;28;8840;-57
2023/09/21 07:22:12;;;;;;;;;0.20;0.20;;;;;20.95;58.00;98237.97;5097011;28;8830;-58
2023/09/21 07:24:40;;;;;;;;;2.80;2.80;;;;;21.03;57.82;98240.34;5096682;28;8818;-57
2023/09/21 07:27:08;;;;;;;;;4.00;2.00;;;;;21.12;57.71;98238.97;5097182;28;8914;-58
2023/09/21 07:29:36;;;;;;;;;1.00;1.00;;;;;21.20;57.19;98238.66;5097121;28;8852;-58
2023/09/21 07:32:04;;;;;;;;;2.00;2.00;;;;;21.28;57.51;98239.16;5097326;28;8840;-58
2023/09/21 07:34:35;;;;;;;;;3.20;2.00;;;;;21.34;57.04;98240.91;5097660;28;8864;-58
2023/09/21 07:37:03;;;;;;;;;2.00;2.00;;;;;21.41;57.23;98241.63;5097263;28;8838;-58
2023/09/21 07:39:33;;;;;;;;;2.00;2.00;;;;;21.48;57.35;98239.66;5097368;28;8830;-59
2023/09/21 07:42:04;;;;;;;;;3.20;3.20;;;;;21.55;57.11;98229.53;5097532;28;8919;-58
2023/09/21 07:44:32;;;;;;;;;4.00;2.80;;;;;21.64;56.98;98228.13;5097067;28;9604;-58
2023/09/21 07:46:59;;;;;;;;;2.00;2.00;;;;;21.71;56.78;98236.19;5096854;28;8830;-58
2023/09/21 07:49:27;;;;;;;;;2.00;2.00;;;;;21.79;57.08;98225.00;5096166;28;8818;-58
2023/09/21 07:51:56;;;;;;;;;2.00;2.00;;;;;21.87;57.09;98228.19;5096056;28;8830;-58
2023/09/21 07:54:23;;;;;;;;;2.00;1.60;;;;;21.95;56.97;98233.25;5096184;28;8826;-57
2023/09/21 07:56:51;;;;;;;;;3.20;3.20;;;;;21.97;57.03;98227.59;5096119;28;8852;-60
2023/09/21 07:59:19;;;;;;;;;2.00;2.00;;;;;22.00;56.65;98227.16;5097116;28;8856;-60
2023/09/21 08:01:48;;;;;;;;;3.20;2.80;;;;;22.06;56.68;98228.88;5096340;28;8838;-59
2023/09/21 08:04:17;;;;;;;;;2.80;2.00;;;;;22.10;56.70;98224.66;5096322;28;8846;-59
2023/09/21 08:06:45;;;;;;;;;4.00;2.00;;;;;22.08;56.80;98233.03;5096232;28;8833;-60
2023/09/21 08:09:14;;;;;;;;;3.60;2.40;;;;;22.06;57.06;98220.75;5096675;28;8814;-60
2023/09/21 08:11:57;;;;;;;;;4.20;4.00;;;;;22.03;57.31;98234.78;5096055;28;8840;-59
2023/09/21 08:14:25;;;;;;;;;2.40;2.40;;;;;22.02;56.86;98242.09;5095499;28;8821;-60
2023/09/21 08:16:53;;;;;;;;;2.40;2.40;;;;;22.05;56.99;98232.66;5095671;28;8911;-59
2023/09/21 08:19:21;;;;;;;;;2.40;2.00;;;;;22.16;56.82;98231.84;5096371;28;8830;-60
2023/09/21 08:21:50;;;;;;;;;1.00;1.00;;;;;22.23;56.87;98229.84;5095413;28;9555;-59
2023/09/21 08:24:17;;;;;;;;;1.00;1.00;;;;;22.27;56.87;98234.56;5094822;28;8821;-60
2023/09/21 08:26:45;;;;;;;;;4.00;4.00;;;;;22.31;56.79;98243.03;5094196;28;8810;-59
2023/09/21 08:29:14;;;;;;;;;2.80;2.40;;;;;22.33;56.68;98247.13;5093629;28;8838;-59
2023/09/21 08:31:43;;;;;;;;;3.20;2.80;;;;;22.36;56.56;98246.69;5094539;28;8814;-60
2023/09/21 08:34:11;;;;;;;;;4.00;2.80;;;;;22.40;56.83;98249.75;5095224;28;8834;-59
2023/09/21 08:36:40;;;;;;;;;3.60;2.00;;;;;22.47;56.69;98256.72;5095051;28;8932;-59
2023/09/21 08:39:08;;;;;;;;;2.40;2.40;;;;;22.50;56.57;98267.09;5095855;28;8841;-58
2023/09/21 08:41:36;;;;;;;;;2.80;2.80;;;;;22.52;56.69;98256.00;5096229;28;8822;-58
2023/09/21 08:44:04;;;;;;;;;2.00;2.00;;;;;22.52;56.75;98253.28;5096095;28;8822;-60
2023/09/21 08:46:32;;;;;;;;;2.00;2.00;;;;;22.53;56.54;98260.38;5095614;28;8846;-60
2023/09/21 08:49:00;;;;;;;;;2.00;2.00;;;;;22.59;56.42;98262.94;5094830;28;8952;-60
2023/09/21 08:51:28;;;;;;;;;4.40;4.40;;;;;22.68;56.43;98258.78;5095453;28;9496;-59
2023/09/21 08:53:59;;;;;;;;;4.00;4.00;;;;;22.75;56.23;98275.78;5075017;28;8913;-60
2023/09/21 08:56:27;;;;;;;;;5.60;3.60;;;;;22.79;56.32;98257.13;5075180;28;8835;-60
2023/09/21 08:58:55;;;;;;;;;1.60;1.60;;;;;22.83;56.37;98250.16;5075458;28;8852;-59
2023/09/21 09:01:23;;;;;;;;;2.00;2.00;;;;;22.93;55.87;98253.88;5074403;28;8827;-60
2023/09/21 09:03:51;;;;;;;;;2.00;2.00;;;;;23.00;56.41;98256.47;5075088;28;8848;-60
2023/09/21 09:06:19;;;;;;;;;1.80;1.80;;;;;23.03;55.91;98254.09;5074891;28;8828;-59
2023/09/21 09:08:47;;;;;;;;;2.00;2.00;;;;;23.01;56.08;98266.25;5073766;28;8844;-58
2023/09/21 09:11:15;;;;;;;;;2.00;2.00;;;;;22.97;56.05;98254.22;5073703;28;8832;-59
2023/09/21 09:13:43;;;;;;;;;3.20;3.20;;;;;23.11;56.17;98252.88;5073832;28;8816;-59
2023/09/21 09:16:12;;;;;;;;;4.00;4.00;;;;;23.27;55.75;98252.94;5073977;28;8828;-60
2023/09/21 09:18:40;;;;;;;;;1.20;1.20;;;;;23.52;55.22;98258.81;5074876;28;8964;-59
2023/09/21 09:21:09;;;;;;;;;2.00;2.00;;;;;23.69;54.92;98247.97;5073997;28;8828;-59
2023/09/21 09:23:37;;;;;;;;;2.80;2.80;;;;;23.77;54.65;98253.00;5075033;28;8929;-60
2023/09/21 09:26:05;;;;;;;;;3.60;3.20;;;;;23.73;54.62;98258.09;5074718;28;8862;-58
2023/09/21 09:28:33;;;;;;;;;3.60;2.00;;;;;23.62;55.19;98258.19;5074909;28;8852;-57
2023/09/21 09:31:06;;;;;;;;;4.80;4.00;;;;;23.56;55.45;98259.16;5074869;28;8832;-59
2023/09/21 09:33:34;;;;;;;;;3.60;2.40;;;;;23.50;55.70;98260.97;5075102;28;8828;-59
2023/09/21 09:36:02;;;;;;;;;4.00;3.60;;;;;23.42;55.39;98260.53;5074832;28;8820;-59
2023/09/21 09:38:31;;;;;;;;;4.20;3.20;;;;;23.34;56.02;98260.94;5074973;28;8855;-60
2023/09/21 09:41:00;;;;;;;;;4.00;2.80;;;;;23.23;55.74;98250.97;5074810;28;8828;-60
2023/09/21 09:43:28;;;;;;;;;1.00;1.00;;;;;23.20;56.24;98259.59;5074164;28;9595;-57
2023/09/21 09:45:56;;;;;;;;;2.40;1.60;;;;;23.24;56.11;98258.03;5073799;28;8852;-57
2023/09/21 09:48:26;;;;;;;;;3.20;2.00;;;;;23.32;55.93;98252.22;5073963;28;8970;-59
2023/09/21 09:50:54;;;;;;;;;1.20;1.20;;;;;23.57;55.27;98258.09;5073699;28;8808;-59
2023/09/21 09:53:25;;;;;;;;;4.20;3.60;;;;;23.70;55.05;98258.63;5073605;28;8821;-58
2023/09/21 09:55:53;;;;;;;;;1.00;0.00;;;;;23.83;54.72;98246.59;5072633;28;8837;-57
2023/09/21 09:58:21;;;;;;;;;1.40;1.40;;;;;24.04;54.63;98245.88;5079887;28;8822;-59
2023/09/21 10:00:51;;;;;;;;;4.00;4.00;;;;;24.17;54.07;98259.09;5093876;28;8936;-59
2023/09/21 10:03:20;;;;;;;;;3.60;3.60;;;;;24.09;54.51;98246.75;5094249;28;8854;-59
2023/09/21 10:05:48;;;;;;;;;4.60;4.60;;;;;24.01;54.30;98249.06;5094601;28;9737;-59
2023/09/21 10:08:17;;;;;;;;;1.00;1.00;;;;;24.04;54.41;98259.47;5094703;28;8956;-59
2023/09/21 10:10:46;;;;;;;;;4.40;4.40;;;;;24.11;54.87;98249.25;5093935;28;8844;-58
2023/09/21 10:13:13;;;;;;;;;4.60;4.60;;;;;24.04;54.61;98251.31;5094305;28;8964;-60
2023/09/21 10:15:41;;;;;;;;;4.40;3.80;;;;;23.94;55.17;98257.41;5094313;28;8827;-59
2023/09/21 10:18:09;;;;;;;;;5.00;4.80;;;;;23.87;55.14;98242.31;5093775;28;8952;-58
2023/09/21 10:20:37;;;;;;;;;3.80;3.80;;;;;23.78;55.60;98246.50;5094150;28;8830;-58
2023/09/21 10:23:09;;;;;;;;;2.00;2.00;;;;;23.69;55.39;98250.69;5093901;28;8830;-58
2023/09/21 10:25:39;;;;;;;;;3.60;3.60;;;;;23.60;55.69;98254.91;5094500;28;8844;-59
2023/09/21 10:28:07;;;;;;;;;1.20;1.00;;;;;23.57;55.64;98258.94;5092682;28;8918;-59
2023/09/21 10:30:36;;;;;;;;;3.60;3.60;;;;;23.53;56.09;98246.06;5093568;28;8826;-60
2023/09/21 10:33:07;;;;;;;;;4.00;4.00;;;;;23.49;56.03;98244.91;5092864;28;8851;-59
2023/09/21 10:35:35;;;;;;;;;3.60;2.00;;;;;23.43;55.86;98251.34;5094307;28;8832;-58
2023/09/21 10:38:04;;;;;;;;;1.00;1.00;;;;;23.37;56.55;98252.31;5093744;28;8830;-58
2023/09/21 10:40:32;;;;;;;;;4.60;4.60;;;;;23.28;56.58;98246.44;5093144;28;8875;-58
2023/09/21 10:43:00;;;;;;;;;4.00;3.20;;;;;23.26;56.59;98245.03;5094021;28;8837;-57
2023/09/21 10:45:28;;;;;;;;;4.60;3.60;;;;;23.22;56.68;98238.44;5094508;28;9488;-57
2023/09/21 10:47:56;;;;;;;;;4.00;3.20;;;;;23.33;56.16;98249.25;5093877;28;8953;-59
2023/09/21 10:50:25;;;;;;;;;3.80;2.80;;;;;23.60;55.58;98239.38;5093514;28;9838;-60
2023/09/21 10:52:55;;;;;;;;;2.40;2.40;;;;;23.96;54.51;98235.41;5094389;28;8825;-58
2023/09/21 10:55:24;;;;;;;;;1.60;1.60;;;;;24.24;54.44;98237.97;5097892;28;8822;-59
2023/09/21 10:57:53;;;;;;;;;1.60;1.60;;;;;24.36;54.07;98230.56;5097585;28;8842;-60
2023/09/21 11:00:21;;;;;;;;;3.80;3.00;;;;;24.38;54.51;98215.63;5097414;28;9542;-58
2023/09/21 11:02:52;;;;;;;;;4.60;4.00;;;;;24.37;54.28;98216.69;5096986;28;9043;-60
2023/09/21 11:05:25;;;;;;;;;2.00;2.00;;;;;24.37;54.49;98219.41;5097177;28;8949;-60
2023/09/21 11:07:52;;;;;;;;;4.00;3.60;;;;;24.44;53.91;98222.75;5096911;28;8826;-61
2023/09/21 11:10:20;;;;;;;;;2.00;2.00;;;;;24.46;54.06;98198.84;5097210;28;8868;-57
2023/09/21 11:12:48;;;;;;;;;5.00;3.20;;;;;24.48;53.95;98188.53;5097146;28;8838;-57
2023/09/21 11:15:17;;;;;;;;;3.20;2.00;;;;;24.42;54.46;98192.25;5096643;28;8837;-57
2023/09/21 11:17:46;;;;;;;;;3.80;3.80;;;;;24.35;54.67;98188.88;5097020;28;8972;-58
2023/09/21 11:20:14;;;;;;;;;4.20;3.20;;;;;24.38;54.54;98188.41;5095898;28;8834;-60
2023/09/21 11:22:42;;;;;;;;;3.20;3.20;;;;;24.48;54.36;98191.25;5095782;28;8846;-58
2023/09/21 11:25:11;;;;;;;;;4.60;4.60;;;;;24.63;53.55;98187.91;5095942;28;8837;-57
2023/09/21 11:27:40;;;;;;;;;2.20;2.20;;;;;24.88;53.82;98196.38;5095980;28;8826;-58
2023/09/21 11:30:10;;;;;;;;;1.60;1.60;;;;;25.29;52.37;98203.94;5095920;28;8858;-58
2023/09/21 11:32:38;;;;;;;;;3.80;3.00;;;;;25.58;52.13;98190.56;5096313;28;9585;-60
2023/09/21 11:35:07;;;;;;;;;0.00;0.00;;;;;25.73;52.25;98190.69;5096493;28;8821;-60
2023/09/21 11:37:34;;;;;;;;;2.60;2.40;;;;;25.89;51.35;98189.75;5096939;28;8857;-59
2023/09/21 11:40:10;;;;;;;;;2.40;2.00;;;;;25.82;51.74;98183.66;5096252;28;8833;-59
2023/09/21 11:42:38;;;;;;;;;2.40;2.20;;;;;26.12;51.45;98167.50;5094381;28;8907;-58
2023/09/21 11:45:06;;;;;;;;;3.00;3.00;;;;;26.72;50.61;98176.00;5093962;28;8822;-57
2023/09/21 11:47:34;;;;;;;;;2.20;2.20;;;;;27.20;49.29;98175.63;5094710;28;8852;-59